Guadalupe Mtns National Park, TX

11:55 AM MDT on July 29, 2016 (GMT -0600)
APRSWXNET | | Change Station

Elev 3680 ft 31.84 °N, 104.96 °W | Updated 22 minutes ago

Clear
Clear
91 °F
Feels Like 88 °F
N
11
Wind Variable Wind from East
Gusts 0.0 mph

Today
High -- | Low -- °F
--% Chance of Precip.
Yesterday
High -- | Low -- °F
Precip. -- in
Pressure 29.96 in
Visibility 10.0 miles
Clouds Clear
Heat Index 88 °F
Dew Point 50 °F
Humidity 25%
Rainfall in
Snow Depth Not available.
6:14 AM 7:58 PM
Waning Crescent, 20% visible
METAR KGDP 291751Z AUTO 07023G32KT 10SM CLR 28/12 A3023 RMK AO2 PK WND 08032/1747 SLP144 T02780117 10283 20211 50001
Pressure 29.96 in
Visibility 10.0 miles
Clouds Clear
Heat Index 88 °F
Dew Point 50 °F
Humidity 25%
Rainfall in
Snow Depth Not available.
6:14 AM 7:58 PM
Waning Crescent, 20% visible
METAR KGDP 291751Z AUTO 07023G32KT 10SM CLR 28/12 A3023 RMK AO2 PK WND 08032/1747 SLP144 T02780117 10283 20211 50001

10-Day Weather Forecast

Almanac

Astronomy

Jul. 29, 2016 Rise Set
Actual Time
Civil Twilight
Nautical Twilight
Astronomical Twilight
Moon
Length of Visible Light
Length of Day
Tomorrow will be .
, % of the Moon is Illuminated

Today's Extremes

State Highs State Lows

Community

WunderPhotos

Upload Photos

1,928,382 photos uploaded!

WunderBlog® & News

Nearby

Air Quality

  Air Quality AQ Index Pollutant
Not available.

Snow Depth

Station Depth Elevation

Earthquake Activity

City Distance Mag. Time & Date
Minimum magnitude displayed is 2.5.

Coastal Water Temperatures

Place Temperature

Stations

Nearby Weather Stations

Station Location Temp. Windchill Dew Point Humidity Wind Precip. Elev Updated Type
                   

Watches & Warnings

There are currently no watches in effect.